Time,TemperatureF,DewpointF,PressureIn,WindDirection,WindDirectionDegrees,WindSpeedMPH,WindSpeedGustMPH,Humidity,HourlyPrecipIn,Conditions,Clouds,dailyrainin,SolarRadiationWatts/m^2,SoftwareType,DateUTC
2013-02-21 00:01:00,17.0,14.0,-100.00,SW,215,0.0,3.0,88,0.00,,,0.00,0.000000,,2013-02-21 07:01:00,
2013-02-21 00:11:00,17.0,14.0,-100.00,SW,215,0.0,3.0,88,0.00,,,0.00,0.000000,,2013-02-21 07:11:00,
2013-02-21 00:21:00,17.0,14.0,-100.00,SW,215,0.0,3.0,88,0.00,,,0.00,0.000000,,2013-02-21 07:21:00,
2013-02-21 00:32:00,17.0,14.0,-100.00,SW,215,0.0,3.0,88,0.00,,,0.00,0.000000,,2013-02-21 07:32:00,
2013-02-21 01:01:00,17.0,14.0,-100.00,NW,310,1.0,3.0,88,0.00,,,0.00,0.000000,,2013-02-21 08:01:00,
2013-02-21 01:11:00,17.0,14.0,-100.00,NW,310,1.0,3.0,88,0.00,,,0.00,0.000000,,2013-02-21 08:11:00,
2013-02-21 01:21:00,17.0,14.0,-100.00,NW,310,1.0,3.0,88,0.00,,,0.00,0.000000,,2013-02-21 08:21:00,
2013-02-21 01:32:00,17.0,14.0,-100.00,NW,310,1.0,3.0,88,0.00,,,0.00,0.000000,,2013-02-21 08:32:00,
2013-02-21 02:01:00,17.0,14.0,-100.00,North,355,3.0,5.0,88,0.00,,,0.00,0.000000,,2013-02-21 09:01:00,
2013-02-21 02:11:00,17.0,14.0,-100.00,North,355,3.0,5.0,88,0.00,,,0.00,0.000000,,2013-02-21 09:11:00,
2013-02-21 02:22:00,17.0,14.0,-100.00,North,355,3.0,5.0,88,0.00,,,0.00,0.000000,,2013-02-21 09:22:00,
2013-02-21 02:31:00,17.0,14.0,-100.00,North,355,3.0,5.0,88,0.00,,,0.00,0.000000,,2013-02-21 09:31:00,
2013-02-21 02:52:00,17.0,14.0,-100.00,NNE,13,2.0,5.0,87,0.00,,,0.00,0.000000,,2013-02-21 09:52:00,
2013-02-21 03:01:00,17.0,14.0,-100.00,NNE,13,2.0,5.0,87,0.00,,,0.00,0.000000,,2013-02-21 10:01:00,
2013-02-21 03:11:00,17.0,14.0,-100.00,NNE,13,2.0,5.0,87,0.00,,,0.00,0.000000,,2013-02-21 10:11:00,
2013-02-21 03:21:00,17.0,14.0,-100.00,NNE,13,2.0,5.0,87,0.00,,,0.00,0.000000,,2013-02-21 10:21:00,
2013-02-21 03:31:00,17.0,14.0,-100.00,NNE,13,2.0,5.0,87,0.00,,,0.00,0.000000,,2013-02-21 10:31:00,
2013-02-21 03:51:00,16.0,13.0,-100.00,NNW,342,2.0,6.0,86,0.00,,,0.00,0.000000,,2013-02-21 10:51:00,
2013-02-21 04:01:00,16.0,13.0,-100.00,NNW,342,2.0,6.0,86,0.00,,,0.00,0.000000,,2013-02-21 11:01:00,
2013-02-21 04:11:00,16.0,13.0,-100.00,NNW,342,2.0,6.0,86,0.00,,,0.00,0.000000,,2013-02-21 11:11:00,
2013-02-21 04:21:00,16.0,13.0,-100.00,NNW,342,2.0,6.0,86,0.00,,,0.00,0.000000,,2013-02-21 11:21:00,
2013-02-21 04:31:00,16.0,13.0,-100.00,NNW,342,2.0,6.0,86,0.00,,,0.00,0.000000,,2013-02-21 11:31:00,
2013-02-21 05:01:00,16.0,12.0,-100.00,North,351,2.0,6.0,85,0.00,,,0.00,0.000000,,2013-02-21 12:01:00,
2013-02-21 05:11:00,16.0,12.0,-100.00,North,351,2.0,6.0,85,0.00,,,0.00,0.000000,,2013-02-21 12:11:00,
2013-02-21 05:21:00,16.0,12.0,-100.00,North,351,2.0,6.0,85,0.00,,,0.00,0.000000,,2013-02-21 12:21:00,
2013-02-21 05:32:00,16.0,12.0,-100.00,North,351,2.0,6.0,85,0.00,,,0.00,0.000000,,2013-02-21 12:32:00,
2013-02-21 06:02:00,16.0,12.0,-100.00,North,353,2.0,8.0,85,0.00,,,0.00,0.000000,,2013-02-21 13:02:00,
2013-02-21 06:12:00,16.0,12.0,-100.00,North,353,2.0,8.0,85,0.00,,,0.00,0.000000,,2013-02-21 13:12:00,
2013-02-21 06:22:00,16.0,12.0,-100.00,North,353,2.0,8.0,85,0.00,,,0.00,0.000000,,2013-02-21 13:22:00,
2013-02-21 06:32:00,16.0,12.0,-100.00,North,353,2.0,8.0,85,0.00,,,0.00,0.000000,,2013-02-21 13:32:00,
2013-02-21 07:02:00,16.0,12.0,-100.00,North,354,2.0,5.0,85,0.00,,,0.00,0.000000,,2013-02-21 14:02:00,
2013-02-21 07:11:00,16.0,12.0,-100.00,North,354,2.0,5.0,85,0.00,,,0.00,0.000000,,2013-02-21 14:11:00,
2013-02-21 07:21:00,16.0,12.0,-100.00,North,354,2.0,5.0,85,0.00,,,0.00,0.000000,,2013-02-21 14:21:00,
2013-02-21 07:32:00,16.0,12.0,-100.00,North,354,2.0,5.0,85,0.00,,,0.00,0.000000,,2013-02-21 14:32:00,
2013-02-21 08:01:00,15.0,11.0,-100.00,North,353,2.0,6.0,85,0.00,,,0.00,7.000000,,2013-02-21 15:01:00,
2013-02-21 08:12:00,15.0,11.0,-100.00,North,353,2.0,6.0,85,0.00,,,0.00,7.000000,,2013-02-21 15:12:00,
2013-02-21 08:21:00,15.0,11.0,-100.00,North,353,2.0,6.0,85,0.00,,,0.00,7.000000,,2013-02-21 15:21:00,
2013-02-21 08:32:00,15.0,11.0,-100.00,North,353,2.0,6.0,85,0.00,,,0.00,7.000000,,2013-02-21 15:32:00,
2013-02-21 09:01:00,16.0,12.0,-100.00,North,1,2.0,8.0,84,0.00,,,0.00,48.000000,,2013-02-21 16:01:00,
2013-02-21 09:12:00,16.0,12.0,-100.00,North,1,2.0,8.0,84,0.00,,,0.00,48.000000,,2013-02-21 16:12:00,
2013-02-21 09:22:00,16.0,12.0,-100.00,North,1,2.0,8.0,84,0.00,,,0.00,48.000000,,2013-02-21 16:22:00,
2013-02-21 09:32:00,16.0,12.0,-100.00,North,1,2.0,8.0,84,0.00,,,0.00,48.000000,,2013-02-21 16:32:00,
2013-02-21 10:01:00,20.0,15.0,-100.00,ENE,66,3.0,6.0,79,0.00,,,0.00,201.000000,,2013-02-21 17:01:00,
2013-02-21 10:11:00,20.0,15.0,-100.00,ENE,66,3.0,6.0,79,0.00,,,0.00,201.000000,,2013-02-21 17:11:00,
2013-02-21 10:21:00,20.0,15.0,-100.00,ENE,66,3.0,6.0,79,0.00,,,0.00,201.000000,,2013-02-21 17:21:00,
2013-02-21 10:32:00,20.0,15.0,-100.00,ENE,66,3.0,6.0,79,0.00,,,0.00,201.000000,,2013-02-21 17:32:00,
2013-02-21 11:02:00,22.0,14.0,-100.00,NNE,30,3.0,8.0,71,0.00,,,0.00,298.000000,,2013-02-21 18:02:00,
2013-02-21 11:11:00,22.0,14.0,-100.00,NNE,30,3.0,8.0,71,0.00,,,0.00,298.000000,,2013-02-21 18:11:00,
2013-02-21 11:22:00,22.0,14.0,-100.00,NNE,30,3.0,8.0,71,0.00,,,0.00,298.000000,,2013-02-21 18:22:00,
2013-02-21 11:31:00,22.0,14.0,-100.00,NNE,30,3.0,8.0,71,0.00,,,0.00,298.000000,,2013-02-21 18:31:00,
2013-02-21 12:01:00,24.0,15.0,-100.00,East,90,3.0,7.0,69,0.00,,,0.00,320.000000,,2013-02-21 19:01:00,
2013-02-21 12:12:00,24.0,15.0,-100.00,East,90,3.0,7.0,69,0.00,,,0.00,320.000000,,2013-02-21 19:12:00,
2013-02-21 12:21:00,24.0,15.0,-100.00,East,90,3.0,7.0,69,0.00,,,0.00,320.000000,,2013-02-21 19:21:00,
2013-02-21 12:31:00,24.0,15.0,-100.00,East,90,3.0,7.0,69,0.00,,,0.00,320.000000,,2013-02-21 19:31:00,
2013-02-21 12:52:00,25.0,14.0,-100.00,SE,142,4.0,10.0,62,0.03,,,0.03,510.000000,,2013-02-21 19:52:00,
2013-02-21 13:01:00,25.0,14.0,-100.00,SE,142,4.0,10.0,62,0.03,,,0.03,510.000000,,2013-02-21 20:01:00,
2013-02-21 13:11:00,25.0,14.0,-100.00,SE,142,4.0,10.0,62,0.03,,,0.03,510.000000,,2013-02-21 20:11:00,
2013-02-21 13:21:00,25.0,14.0,-100.00,SE,142,4.0,10.0,62,0.03,,,0.03,510.000000,,2013-02-21 20:21:00,
2013-02-21 13:32:00,25.0,14.0,-100.00,SE,142,4.0,10.0,62,0.03,,,0.03,510.000000,,2013-02-21 20:32:00,
2013-02-21 14:02:00,25.0,16.0,-100.00,South,186,3.0,7.0,67,0.00,,,0.03,390.000000,,2013-02-21 21:02:00,
2013-02-21 14:11:00,25.0,16.0,-100.00,South,186,3.0,7.0,67,0.00,,,0.03,390.000000,,2013-02-21 21:11:00,
2013-02-21 14:21:00,25.0,16.0,-100.00,South,186,3.0,7.0,67,0.00,,,0.03,390.000000,,2013-02-21 21:21:00,
2013-02-21 14:31:00,25.0,16.0,-100.00,South,186,3.0,7.0,67,0.00,,,0.03,390.000000,,2013-02-21 21:31:00,
2013-02-21 15:01:00,26.0,14.0,-100.00,South,181,4.0,6.0,61,0.00,,,0.03,391.000000,,2013-02-21 22:01:00,
2013-02-21 15:11:00,26.0,14.0,-100.00,South,181,4.0,6.0,61,0.00,,,0.03,391.000000,,2013-02-21 22:11:00,
2013-02-21 15:21:00,26.0,14.0,-100.00,South,181,4.0,6.0,61,0.00,,,0.03,391.000000,,2013-02-21 22:21:00,
2013-02-21 15:31:00,26.0,14.0,-100.00,South,181,4.0,6.0,61,0.00,,,0.03,391.000000,,2013-02-21 22:31:00,
2013-02-21 16:01:00,23.0,16.0,-100.00,West,264,3.0,5.0,73,0.00,,,0.03,222.000000,,2013-02-21 23:01:00,
2013-02-21 16:11:00,23.0,16.0,-100.00,West,264,3.0,5.0,73,0.00,,,0.03,222.000000,,2013-02-21 23:11:00,
2013-02-21 16:21:00,23.0,16.0,-100.00,West,264,3.0,5.0,73,0.00,,,0.03,222.000000,,2013-02-21 23:21:00,
2013-02-21 16:32:00,23.0,16.0,-100.00,West,264,3.0,5.0,73,0.00,,,0.03,222.000000,,2013-02-21 23:32:00,
2013-02-21 16:52:00,20.0,16.0,-100.00,South,191,2.0,4.0,84,0.00,,,0.03,55.000000,,2013-02-21 23:52:00,
2013-02-21 17:01:00,20.0,16.0,-100.00,South,191,2.0,4.0,84,0.00,,,0.03,55.000000,,2013-02-22 00:01:00,
2013-02-21 17:11:00,20.0,16.0,-100.00,South,191,2.0,4.0,84,0.00,,,0.03,55.000000,,2013-02-22 00:11:00,
2013-02-21 17:21:00,20.0,16.0,-100.00,South,191,2.0,4.0,84,0.00,,,0.03,55.000000,,2013-02-22 00:21:00,
2013-02-21 17:32:00,20.0,16.0,-100.00,South,191,2.0,4.0,84,0.00,,,0.03,55.000000,,2013-02-22 00:32:00,
2013-02-21 18:01:00,18.0,15.0,-100.00,South,176,2.0,6.0,88,0.00,,,0.03,12.000000,,2013-02-22 01:01:00,
2013-02-21 18:11:00,18.0,15.0,-100.00,South,176,2.0,6.0,88,0.00,,,0.03,12.000000,,2013-02-22 01:11:00,
2013-02-21 18:21:00,18.0,15.0,-100.00,South,176,2.0,6.0,88,0.00,,,0.03,12.000000,,2013-02-22 01:21:00,
2013-02-21 18:32:00,18.0,15.0,-100.00,South,176,2.0,6.0,88,0.00,,,0.03,12.000000,,2013-02-22 01:32:00,
2013-02-21 19:02:00,17.0,14.0,-100.00,South,178,4.0,8.0,89,0.00,,,0.03,1.000000,,2013-02-22 02:02:00,
2013-02-21 19:11:00,17.0,14.0,-100.00,South,178,4.0,8.0,89,0.00,,,0.03,1.000000,,2013-02-22 02:11:00,
2013-02-21 19:21:00,17.0,14.0,-100.00,South,178,4.0,8.0,89,0.00,,,0.03,1.000000,,2013-02-22 02:21:00,
2013-02-21 19:31:00,17.0,14.0,-100.00,South,178,4.0,8.0,89,0.00,,,0.03,1.000000,,2013-02-22 02:31:00,
2013-02-21 20:01:00,17.0,14.0,-100.00,SW,227,4.0,6.0,88,0.00,,,0.03,0.000000,,2013-02-22 03:01:00,
2013-02-21 20:11:00,17.0,14.0,-100.00,SW,227,4.0,6.0,88,0.00,,,0.03,0.000000,,2013-02-22 03:11:00,
2013-02-21 20:21:00,17.0,14.0,-100.00,SW,227,4.0,6.0,88,0.00,,,0.03,0.000000,,2013-02-22 03:21:00,
2013-02-21 20:32:00,17.0,14.0,-100.00,SW,227,4.0,6.0,88,0.00,,,0.03,0.000000,,2013-02-22 03:32:00,
2013-02-21 21:02:00,16.0,13.0,-100.00,SSW,204,3.0,6.0,87,0.00,,,0.03,0.000000,,2013-02-22 04:02:00,
2013-02-21 21:11:00,16.0,13.0,-100.00,SSW,204,3.0,6.0,87,0.00,,,0.03,0.000000,,2013-02-22 04:11:00,
2013-02-21 21:21:00,16.0,13.0,-100.00,SSW,204,3.0,6.0,87,0.00,,,0.03,0.000000,,2013-02-22 04:21:00,
2013-02-21 21:32:00,16.0,13.0,-100.00,SSW,204,3.0,6.0,87,0.00,,,0.03,0.000000,,2013-02-22 04:32:00,
2013-02-21 22:02:00,15.0,12.0,-100.00,SSW,199,1.0,6.0,87,0.00,,,0.03,0.000000,,2013-02-22 05:02:00,
2013-02-21 22:12:00,15.0,12.0,-100.00,SSW,199,1.0,6.0,87,0.00,,,0.03,0.000000,,2013-02-22 05:12:00,
2013-02-21 22:22:00,15.0,12.0,-100.00,SSW,199,1.0,6.0,87,0.00,,,0.03,0.000000,,2013-02-22 05:22:00,
2013-02-21 22:32:00,15.0,12.0,-100.00,SSW,199,1.0,6.0,87,0.00,,,0.03,0.000000,,2013-02-22 05:32:00,
2013-02-21 23:01:00,15.0,12.0,-100.00,WSW,257,2.0,4.0,86,0.00,,,0.03,0.000000,,2013-02-22 06:01:00,
2013-02-21 23:12:00,15.0,12.0,-100.00,WSW,257,2.0,4.0,86,0.00,,,0.03,0.000000,,2013-02-22 06:12:00,
2013-02-21 23:22:00,15.0,12.0,-100.00,WSW,257,2.0,4.0,86,0.00,,,0.03,0.000000,,2013-02-22 06:22:00,
2013-02-21 23:31:00,15.0,12.0,-100.00,WSW,257,2.0,4.0,86,0.00,,,0.03,0.000000,,2013-02-22 06:31:00,